sensor_id;sensor_type;location;lat;lon;timestamp;P1;durP1;ratioP1;P2;durP2;ratioP2
55915;SDS011;41826;53.246;-6.670;2023-03-05T00:01:23;8.27;;;4.82;;
55915;SDS011;41826;53.246;-6.670;2023-03-05T00:03:51;12.15;;;8.23;;
55915;SDS011;41826;53.246;-6.670;2023-03-05T00:06:18;10.65;;;7.78;;
55915;SDS011;41826;53.246;-6.670;2023-03-05T00:08:45;14.63;;;8.48;;
55915;SDS011;41826;53.246;-6.670;2023-03-05T00:11:11;23.98;;;11.20;;
55915;SDS011;41826;53.246;-6.670;2023-03-05T00:13:37;18.27;;;9.75;;
55915;SDS011;41826;53.246;-6.670;2023-03-05T00:16:03;19.38;;;11.52;;
55915;SDS011;41826;53.246;-6.670;2023-03-05T00:18:31;13.10;;;7.57;;
55915;SDS011;41826;53.246;-6.670;2023-03-05T00:20:57;8.60;;;5.63;;
55915;SDS011;41826;53.246;-6.670;2023-03-05T00:23:22;12.32;;;6.93;;
55915;SDS011;41826;53.246;-6.670;2023-03-05T00:25:47;16.58;;;9.90;;
55915;SDS011;41826;53.246;-6.670;2023-03-05T00:28:13;15.70;;;10.70;;
55915;SDS011;41826;53.246;-6.670;2023-03-05T00:30:38;11.73;;;7.82;;
55915;SDS011;41826;53.246;-6.670;2023-03-05T00:33:04;16.27;;;10.05;;
55915;SDS011;41826;53.246;-6.670;2023-03-05T00:35:30;10.02;;;6.47;;
55915;SDS011;41826;53.246;-6.670;2023-03-05T00:37:55;15.15;;;9.57;;
55915;SDS011;41826;53.246;-6.670;2023-03-05T00:40:21;18.33;;;10.45;;
55915;SDS011;41826;53.246;-6.670;2023-03-05T00:42:46;7.22;;;5.15;;
55915;SDS011;41826;53.246;-6.670;2023-03-05T00:45:12;10.82;;;8.00;;
55915;SDS011;41826;53.246;-6.670;2023-03-05T00:47:37;17.65;;;10.63;;
55915;SDS011;41826;53.246;-6.670;2023-03-05T00:50:03;9.05;;;5.50;;
55915;SDS011;41826;53.246;-6.670;2023-03-05T00:52:30;9.90;;;5.88;;
55915;SDS011;41826;53.246;-6.670;2023-03-05T00:54:56;9.85;;;5.78;;
55915;SDS011;41826;53.246;-6.670;2023-03-05T00:57:21;17.67;;;10.23;;
55915;SDS011;41826;53.246;-6.670;2023-03-05T00:59:47;16.23;;;10.38;;
55915;SDS011;41826;53.246;-6.670;2023-03-05T01:02:12;15.45;;;10.25;;
55915;SDS011;41826;53.246;-6.670;2023-03-05T01:04:38;12.43;;;7.03;;
55915;SDS011;41826;53.246;-6.670;2023-03-05T01:07:03;6.93;;;4.22;;
55915;SDS011;41826;53.246;-6.670;2023-03-05T01:09:29;17.75;;;9.45;;
55915;SDS011;41826;53.246;-6.670;2023-03-05T01:11:54;6.57;;;4.00;;
55915;SDS011;41826;53.246;-6.670;2023-03-05T01:14:20;6.05;;;4.70;;
55915;SDS011;41826;53.246;-6.670;2023-03-05T01:16:46;18.67;;;9.93;;
55915;SDS011;41826;53.246;-6.670;2023-03-05T01:19:12;10.40;;;5.97;;
55915;SDS011;41826;53.246;-6.670;2023-03-05T01:21:39;13.15;;;7.72;;
55915;SDS011;41826;53.246;-6.670;2023-03-05T01:24:04;19.10;;;11.07;;
55915;SDS011;41826;53.246;-6.670;2023-03-05T01:26:30;13.77;;;8.50;;
55915;SDS011;41826;53.246;-6.670;2023-03-05T01:28:55;12.45;;;8.02;;
55915;SDS011;41826;53.246;-6.670;2023-03-05T01:31:22;11.70;;;6.88;;
55915;SDS011;41826;53.246;-6.670;2023-03-05T01:33:50;14.40;;;10.75;;
55915;SDS011;41826;53.246;-6.670;2023-03-05T01:36:16;9.60;;;6.68;;
55915;SDS011;41826;53.246;-6.670;2023-03-05T01:38:42;13.20;;;7.45;;
55915;SDS011;41826;53.246;-6.670;2023-03-05T01:41:09;11.60;;;7.20;;
55915;SDS011;41826;53.246;-6.670;2023-03-05T01:43:35;16.98;;;9.25;;
55915;SDS011;41826;53.246;-6.670;2023-03-05T01:49:12;15.00;;;9.45;;
55915;SDS011;41826;53.246;-6.670;2023-03-05T01:54:20;4.38;;;3.15;;
55915;SDS011;41826;53.246;-6.670;2023-03-05T01:56:49;14.43;;;10.02;;
55915;SDS011;41826;53.246;-6.670;2023-03-05T01:59:17;9.88;;;6.25;;
55915;SDS011;41826;53.246;-6.670;2023-03-05T02:01:45;7.45;;;4.93;;
55915;SDS011;41826;53.246;-6.670;2023-03-05T02:04:15;14.38;;;8.90;;
55915;SDS011;41826;53.246;-6.670;2023-03-05T02:06:42;10.38;;;6.88;;
55915;SDS011;41826;53.246;-6.670;2023-03-05T02:09:09;8.27;;;5.22;;
55915;SDS011;41826;53.246;-6.670;2023-03-05T02:11:35;5.97;;;4.18;;
55915;SDS011;41826;53.246;-6.670;2023-03-05T02:14:01;5.40;;;3.65;;
55915;SDS011;41826;53.246;-6.670;2023-03-05T02:16:27;3.88;;;3.30;;
55915;SDS011;41826;53.246;-6.670;2023-03-05T02:19:00;15.20;;;9.38;;
55915;SDS011;41826;53.246;-6.670;2023-03-05T02:21:27;16.55;;;10.15;;
55915;SDS011;41826;53.246;-6.670;2023-03-05T02:23:59;17.17;;;9.45;;
55915;SDS011;41826;53.246;-6.670;2023-03-05T02:26:25;15.07;;;9.05;;
55915;SDS011;41826;53.246;-6.670;2023-03-05T02:28:54;7.82;;;5.22;;
55915;SDS011;41826;53.246;-6.670;2023-03-05T02:31:23;17.35;;;8.35;;
55915;SDS011;41826;53.246;-6.670;2023-03-05T02:33:50;13.43;;;7.78;;
55915;SDS011;41826;53.246;-6.670;2023-03-05T02:36:16;13.50;;;8.48;;
55915;SDS011;41826;53.246;-6.670;2023-03-05T02:38:43;8.15;;;4.55;;
55915;SDS011;41826;53.246;-6.670;2023-03-05T02:41:09;17.58;;;9.73;;
55915;SDS011;41826;53.246;-6.670;2023-03-05T02:43:35;14.50;;;8.40;;
55915;SDS011;41826;53.246;-6.670;2023-03-05T02:46:01;11.35;;;6.90;;
55915;SDS011;41826;53.246;-6.670;2023-03-05T02:48:26;4.65;;;3.95;;
55915;SDS011;41826;53.246;-6.670;2023-03-05T02:50:52;8.45;;;5.80;;
55915;SDS011;41826;53.246;-6.670;2023-03-05T02:53:18;8.65;;;5.55;;
55915;SDS011;41826;53.246;-6.670;2023-03-05T02:55:47;9.80;;;5.93;;
55915;SDS011;41826;53.246;-6.670;2023-03-05T02:58:14;14.20;;;8.98;;
55915;SDS011;41826;53.246;-6.670;2023-03-05T03:00:39;17.67;;;10.18;;
55915;SDS011;41826;53.246;-6.670;2023-03-05T03:03:05;14.82;;;9.52;;
55915;SDS011;41826;53.246;-6.670;2023-03-05T03:05:30;7.13;;;5.15;;
55915;SDS011;41826;53.246;-6.670;2023-03-05T03:07:56;13.93;;;8.93;;
55915;SDS011;41826;53.246;-6.670;2023-03-05T03:10:21;13.48;;;8.60;;
55915;SDS011;41826;53.246;-6.670;2023-03-05T03:12:47;12.00;;;7.72;;
55915;SDS011;41826;53.246;-6.670;2023-03-05T03:15:13;9.25;;;6.13;;
55915;SDS011;41826;53.246;-6.670;2023-03-05T03:17:40;14.27;;;9.55;;
55915;SDS011;41826;53.246;-6.670;2023-03-05T03:20:06;6.85;;;4.00;;
55915;SDS011;41826;53.246;-6.670;2023-03-05T03:22:33;21.48;;;9.70;;
55915;SDS011;41826;53.246;-6.670;2023-03-05T03:24:59;14.38;;;9.70;;
55915;SDS011;41826;53.246;-6.670;2023-03-05T03:27:25;23.17;;;10.45;;
55915;SDS011;41826;53.246;-6.670;2023-03-05T03:29:50;6.57;;;4.55;;
55915;SDS011;41826;53.246;-6.670;2023-03-05T03:32:16;12.23;;;6.75;;
55915;SDS011;41826;53.246;-6.670;2023-03-05T03:34:41;15.65;;;9.52;;
55915;SDS011;41826;53.246;-6.670;2023-03-05T03:37:08;7.38;;;5.20;;
55915;SDS011;41826;53.246;-6.670;2023-03-05T03:39:34;13.75;;;8.05;;
55915;SDS011;41826;53.246;-6.670;2023-03-05T03:41:59;11.60;;;8.00;;
55915;SDS011;41826;53.246;-6.670;2023-03-05T03:44:24;11.35;;;7.68;;
55915;SDS011;41826;53.246;-6.670;2023-03-05T03:46:50;11.27;;;8.30;;
55915;SDS011;41826;53.246;-6.670;2023-03-05T03:49:16;5.10;;;3.90;;
55915;SDS011;41826;53.246;-6.670;2023-03-05T03:51:47;17.33;;;10.00;;
55915;SDS011;41826;53.246;-6.670;2023-03-05T03:54:14;17.17;;;9.60;;
55915;SDS011;41826;53.246;-6.670;2023-03-05T03:56:41;17.77;;;11.25;;
55915;SDS011;41826;53.246;-6.670;2023-03-05T03:59:07;10.88;;;7.72;;
55915;SDS011;41826;53.246;-6.670;2023-03-05T04:01:33;5.78;;;4.05;;
55915;SDS011;41826;53.246;-6.670;2023-03-05T04:03:58;10.00;;;7.47;;
55915;SDS011;41826;53.246;-6.670;2023-03-05T04:06:24;17.77;;;10.20;;
55915;SDS011;41826;53.246;-6.670;2023-03-05T04:08:49;13.63;;;8.70;;
55915;SDS011;41826;53.246;-6.670;2023-03-05T04:11:14;20.98;;;11.02;;
55915;SDS011;41826;53.246;-6.670;2023-03-05T04:13:43;19.08;;;10.95;;
55915;SDS011;41826;53.246;-6.670;2023-03-05T04:16:08;12.98;;;7.78;;
55915;SDS011;41826;53.246;-6.670;2023-03-05T04:18:34;9.38;;;5.28;;
55915;SDS011;41826;53.246;-6.670;2023-03-05T04:20:59;10.95;;;7.28;;
55915;SDS011;41826;53.246;-6.670;2023-03-05T04:23:25;12.05;;;7.90;;
55915;SDS011;41826;53.246;-6.670;2023-03-05T04:25:50;10.38;;;7.18;;
55915;SDS011;41826;53.246;-6.670;2023-03-05T04:28:15;12.13;;;6.90;;
55915;SDS011;41826;53.246;-6.670;2023-03-05T04:30:42;21.45;;;10.88;;
55915;SDS011;41826;53.246;-6.670;2023-03-05T04:33:07;8.48;;;5.63;;
55915;SDS011;41826;53.246;-6.670;2023-03-05T04:35:33;7.65;;;5.00;;
55915;SDS011;41826;53.246;-6.670;2023-03-05T04:37:58;16.45;;;10.90;;
55915;SDS011;41826;53.246;-6.670;2023-03-05T04:40:24;22.27;;;12.00;;
55915;SDS011;41826;53.246;-6.670;2023-03-05T04:42:49;17.23;;;11.15;;
55915;SDS011;41826;53.246;-6.670;2023-03-05T04:45:14;4.57;;;3.70;;
55915;SDS011;41826;53.246;-6.670;2023-03-05T04:47:41;8.07;;;5.78;;
55915;SDS011;41826;53.246;-6.670;2023-03-05T04:50:07;4.82;;;3.53;;
55915;SDS011;41826;53.246;-6.670;2023-03-05T04:52:33;3.95;;;3.40;;
55915;SDS011;41826;53.246;-6.670;2023-03-05T04:54:59;10.35;;;6.45;;
55915;SDS011;41826;53.246;-6.670;2023-03-05T04:57:24;13.68;;;8.90;;
55915;SDS011;41826;53.246;-6.670;2023-03-05T04:59:49;17.13;;;10.15;;
55915;SDS011;41826;53.246;-6.670;2023-03-05T05:02:15;15.20;;;10.15;;
55915;SDS011;41826;53.246;-6.670;2023-03-05T05:04:40;19.00;;;11.40;;
55915;SDS011;41826;53.246;-6.670;2023-03-05T05:07:09;9.50;;;5.65;;
55915;SDS011;41826;53.246;-6.670;2023-03-05T05:09:36;12.13;;;7.97;;
55915;SDS011;41826;53.246;-6.670;2023-03-05T05:12:02;5.35;;;4.38;;
55915;SDS011;41826;53.246;-6.670;2023-03-05T05:14:27;6.57;;;3.30;;
55915;SDS011;41826;53.246;-6.670;2023-03-05T05:16:53;7.93;;;5.50;;
55915;SDS011;41826;53.246;-6.670;2023-03-05T05:19:18;18.80;;;10.93;;
55915;SDS011;41826;53.246;-6.670;2023-03-05T05:21:43;17.13;;;10.52;;
55915;SDS011;41826;53.246;-6.670;2023-03-05T05:24:09;7.57;;;5.15;;
55915;SDS011;41826;53.246;-6.670;2023-03-05T05:26:34;19.30;;;10.75;;
55915;SDS011;41826;53.246;-6.670;2023-03-05T05:28:59;15.82;;;9.02;;
55915;SDS011;41826;53.246;-6.670;2023-03-05T05:31:25;11.63;;;7.20;;
55915;SDS011;41826;53.246;-6.670;2023-03-05T05:33:50;6.97;;;5.00;;
55915;SDS011;41826;53.246;-6.670;2023-03-05T05:36:16;14.18;;;9.35;;
55915;SDS011;41826;53.246;-6.670;2023-03-05T05:38:43;18.77;;;9.65;;
55915;SDS011;41826;53.246;-6.670;2023-03-05T05:41:11;12.48;;;7.72;;
55915;SDS011;41826;53.246;-6.670;2023-03-05T05:43:38;17.10;;;9.82;;
55915;SDS011;41826;53.246;-6.670;2023-03-05T05:46:06;14.25;;;8.00;;
55915;SDS011;41826;53.246;-6.670;2023-03-05T05:48:33;15.95;;;10.55;;
55915;SDS011;41826;53.246;-6.670;2023-03-05T05:51:03;17.65;;;8.48;;
55915;SDS011;41826;53.246;-6.670;2023-03-05T05:53:33;13.18;;;7.72;;
55915;SDS011;41826;53.246;-6.670;2023-03-05T05:55:59;15.00;;;8.65;;
55915;SDS011;41826;53.246;-6.670;2023-03-05T05:58:24;11.13;;;7.35;;
55915;SDS011;41826;53.246;-6.670;2023-03-05T06:00:49;16.30;;;8.50;;
55915;SDS011;41826;53.246;-6.670;2023-03-05T06:03:15;23.00;;;10.07;;
55915;SDS011;41826;53.246;-6.670;2023-03-05T06:05:41;15.90;;;8.70;;
55915;SDS011;41826;53.246;-6.670;2023-03-05T06:08:06;6.68;;;5.22;;
55915;SDS011;41826;53.246;-6.670;2023-03-05T06:10:32;17.13;;;11.07;;
55915;SDS011;41826;53.246;-6.670;2023-03-05T06:12:57;18.60;;;10.75;;
55915;SDS011;41826;53.246;-6.670;2023-03-05T06:15:23;13.10;;;8.73;;
55915;SDS011;41826;53.246;-6.670;2023-03-05T06:17:48;16.45;;;10.95;;
55915;SDS011;41826;53.246;-6.670;2023-03-05T06:20:14;8.38;;;5.28;;
55915;SDS011;41826;53.246;-6.670;2023-03-05T06:22:39;4.47;;;2.90;;
55915;SDS011;41826;53.246;-6.670;2023-03-05T06:25:05;14.90;;;10.63;;
55915;SDS011;41826;53.246;-6.670;2023-03-05T06:27:33;6.78;;;5.68;;
55915;SDS011;41826;53.246;-6.670;2023-03-05T06:29:59;3.83;;;3.45;;
55915;SDS011;41826;53.246;-6.670;2023-03-05T06:32:24;3.58;;;2.80;;
55915;SDS011;41826;53.246;-6.670;2023-03-05T06:34:50;3.67;;;2.75;;
55915;SDS011;41826;53.246;-6.670;2023-03-05T06:37:16;2.55;;;2.35;;
55915;SDS011;41826;53.246;-6.670;2023-03-05T06:39:41;4.07;;;2.83;;
55915;SDS011;41826;53.246;-6.670;2023-03-05T06:42:07;11.40;;;6.28;;
55915;SDS011;41826;53.246;-6.670;2023-03-05T06:44:32;14.73;;;9.43;;
55915;SDS011;41826;53.246;-6.670;2023-03-05T06:46:57;15.93;;;9.95;;
55915;SDS011;41826;53.246;-6.670;2023-03-05T06:49:23;15.50;;;8.40;;
55915;SDS011;41826;53.246;-6.670;2023-03-05T06:51:48;16.17;;;9.18;;
55915;SDS011;41826;53.246;-6.670;2023-03-05T06:54:14;12.57;;;8.07;;
55915;SDS011;41826;53.246;-6.670;2023-03-05T06:56:42;16.10;;;10.63;;
55915;SDS011;41826;53.246;-6.670;2023-03-05T06:59:09;15.85;;;10.25;;
55915;SDS011;41826;53.246;-6.670;2023-03-05T07:01:35;9.90;;;6.57;;
55915;SDS011;41826;53.246;-6.670;2023-03-05T07:04:01;5.78;;;4.28;;
55915;SDS011;41826;53.246;-6.670;2023-03-05T07:06:27;8.80;;;4.93;;
55915;SDS011;41826;53.246;-6.670;2023-03-05T07:08:56;15.30;;;9.95;;
55915;SDS011;41826;53.246;-6.670;2023-03-05T07:11:22;7.93;;;5.75;;
55915;SDS011;41826;53.246;-6.670;2023-03-05T07:13:49;2.55;;;2.33;;
55915;SDS011;41826;53.246;-6.670;2023-03-05T07:16:16;15.15;;;8.43;;
55915;SDS011;41826;53.246;-6.670;2023-03-05T07:18:43;12.13;;;7.63;;
55915;SDS011;41826;53.246;-6.670;2023-03-05T07:21:10;18.08;;;10.18;;
55915;SDS011;41826;53.246;-6.670;2023-03-05T07:23:40;14.57;;;7.95;;
55915;SDS011;41826;53.246;-6.670;2023-03-05T07:26:05;6.95;;;5.13;;
55915;SDS011;41826;53.246;-6.670;2023-03-05T07:28:31;10.60;;;6.22;;
55915;SDS011;41826;53.246;-6.670;2023-03-05T07:30:58;6.05;;;3.65;;
55915;SDS011;41826;53.246;-6.670;2023-03-05T07:33:28;15.60;;;9.30;;
55915;SDS011;41826;53.246;-6.670;2023-03-05T07:35:54;17.00;;;9.68;;
55915;SDS011;41826;53.246;-6.670;2023-03-05T07:38:20;15.52;;;9.38;;
55915;SDS011;41826;53.246;-6.670;2023-03-05T07:40:46;8.55;;;5.63;;
55915;SDS011;41826;53.246;-6.670;2023-03-05T07:43:11;13.93;;;8.48;;
55915;SDS011;41826;53.246;-6.670;2023-03-05T07:45:40;7.43;;;4.13;;
55915;SDS011;41826;53.246;-6.670;2023-03-05T07:48:07;3.55;;;3.22;;
55915;SDS011;41826;53.246;-6.670;2023-03-05T07:50:37;13.82;;;7.32;;
55915;SDS011;41826;53.246;-6.670;2023-03-05T07:53:03;8.25;;;5.00;;
55915;SDS011;41826;53.246;-6.670;2023-03-05T07:55:29;16.98;;;9.15;;
55915;SDS011;41826;53.246;-6.670;2023-03-05T07:57:54;18.45;;;10.13;;
55915;SDS011;41826;53.246;-6.670;2023-03-05T08:00:20;16.42;;;10.30;;
55915;SDS011;41826;53.246;-6.670;2023-03-05T08:02:45;8.52;;;5.78;;
55915;SDS011;41826;53.246;-6.670;2023-03-05T08:05:11;14.75;;;8.10;;
55915;SDS011;41826;53.246;-6.670;2023-03-05T08:07:37;5.40;;;3.47;;
55915;SDS011;41826;53.246;-6.670;2023-03-05T08:10:03;2.70;;;2.22;;
55915;SDS011;41826;53.246;-6.670;2023-03-05T08:12:29;18.55;;;7.50;;
55915;SDS011;41826;53.246;-6.670;2023-03-05T08:14:54;2.97;;;2.70;;
55915;SDS011;41826;53.246;-6.670;2023-03-05T08:17:19;5.03;;;3.42;;
55915;SDS011;41826;53.246;-6.670;2023-03-05T08:19:45;16.60;;;8.68;;
55915;SDS011;41826;53.246;-6.670;2023-03-05T08:22:10;7.15;;;4.38;;
55915;SDS011;41826;53.246;-6.670;2023-03-05T08:24:36;13.20;;;8.57;;
55915;SDS011;41826;53.246;-6.670;2023-03-05T08:27:01;17.35;;;9.13;;
55915;SDS011;41826;53.246;-6.670;2023-03-05T08:29:26;13.38;;;8.63;;
55915;SDS011;41826;53.246;-6.670;2023-03-05T08:31:52;4.78;;;3.60;;
55915;SDS011;41826;53.246;-6.670;2023-03-05T08:34:19;11.93;;;7.28;;
55915;SDS011;41826;53.246;-6.670;2023-03-05T08:36:45;4.32;;;3.42;;
55915;SDS011;41826;53.246;-6.670;2023-03-05T08:39:11;4.45;;;3.13;;
55915;SDS011;41826;53.246;-6.670;2023-03-05T08:41:36;11.98;;;7.82;;
55915;SDS011;41826;53.246;-6.670;2023-03-05T08:44:02;15.70;;;9.20;;
55915;SDS011;41826;53.246;-6.670;2023-03-05T08:46:28;13.13;;;6.63;;
55915;SDS011;41826;53.246;-6.670;2023-03-05T08:48:53;6.80;;;4.65;;
55915;SDS011;41826;53.246;-6.670;2023-03-05T08:51:21;4.82;;;3.50;;
55915;SDS011;41826;53.246;-6.670;2023-03-05T08:53:50;9.00;;;5.15;;
55915;SDS011;41826;53.246;-6.670;2023-03-05T08:56:16;5.28;;;3.83;;
55915;SDS011;41826;53.246;-6.670;2023-03-05T08:58:41;4.95;;;3.70;;
55915;SDS011;41826;53.246;-6.670;2023-03-05T09:01:08;4.88;;;3.67;;
55915;SDS011;41826;53.246;-6.670;2023-03-05T09:03:33;7.57;;;5.57;;
55915;SDS011;41826;53.246;-6.670;2023-03-05T09:06:00;4.88;;;3.50;;
55915;SDS011;41826;53.246;-6.670;2023-03-05T09:08:27;7.78;;;4.95;;
55915;SDS011;41826;53.246;-6.670;2023-03-05T09:10:53;10.32;;;7.10;;
55915;SDS011;41826;53.246;-6.670;2023-03-05T09:13:19;7.90;;;5.40;;
55915;SDS011;41826;53.246;-6.670;2023-03-05T09:15:44;4.03;;;2.95;;
55915;SDS011;41826;53.246;-6.670;2023-03-05T09:18:09;7.30;;;4.50;;
55915;SDS011;41826;53.246;-6.670;2023-03-05T09:20:35;13.10;;;7.50;;
55915;SDS011;41826;53.246;-6.670;2023-03-05T09:23:01;4.60;;;3.78;;
55915;SDS011;41826;53.246;-6.670;2023-03-05T09:25:27;15.75;;;8.77;;
55915;SDS011;41826;53.246;-6.670;2023-03-05T09:27:52;16.77;;;9.25;;
55915;SDS011;41826;53.246;-6.670;2023-03-05T09:30:18;14.35;;;8.80;;
55915;SDS011;41826;53.246;-6.670;2023-03-05T09:32:44;17.40;;;9.68;;
55915;SDS011;41826;53.246;-6.670;2023-03-05T09:35:09;9.90;;;7.20;;
55915;SDS011;41826;53.246;-6.670;2023-03-05T09:37:35;9.77;;;6.05;;
55915;SDS011;41826;53.246;-6.670;2023-03-05T09:40:00;9.27;;;4.75;;
55915;SDS011;41826;53.246;-6.670;2023-03-05T09:45:34;8.75;;;5.05;;
55915;SDS011;41826;53.246;-6.670;2023-03-05T09:55:45;9.48;;;6.15;;
55915;SDS011;41826;53.246;-6.670;2023-03-05T09:58:21;11.20;;;7.05;;
55915;SDS011;41826;53.246;-6.670;2023-03-05T10:01:05;14.90;;;8.43;;
55915;SDS011;41826;53.246;-6.670;2023-03-05T10:03:57;7.70;;;4.85;;
55915;SDS011;41826;53.246;-6.670;2023-03-05T10:06:31;8.27;;;5.43;;
55915;SDS011;41826;53.246;-6.670;2023-03-05T10:11:54;14.77;;;9.45;;
55915;SDS011;41826;53.246;-6.670;2023-03-05T10:14:31;10.07;;;5.68;;
55915;SDS011;41826;53.246;-6.670;2023-03-05T10:22:24;14.27;;;6.75;;
55915;SDS011;41826;53.246;-6.670;2023-03-05T10:47:09;5.53;;;4.82;;
55915;SDS011;41826;53.246;-6.670;2023-03-05T10:49:57;7.05;;;4.50;;
55915;SDS011;41826;53.246;-6.670;2023-03-05T10:52:36;16.83;;;8.43;;
55915;SDS011;41826;53.246;-6.670;2023-03-05T10:55:14;14.35;;;7.15;;
55915;SDS011;41826;53.246;-6.670;2023-03-05T10:57:42;10.70;;;7.35;;
55915;SDS011;41826;53.246;-6.670;2023-03-05T11:00:18;8.75;;;5.13;;
55915;SDS011;41826;53.246;-6.670;2023-03-05T11:02:56;11.15;;;7.03;;
55915;SDS011;41826;53.246;-6.670;2023-03-05T11:10:46;10.80;;;6.97;;
55915;SDS011;41826;53.246;-6.670;2023-03-05T11:13:25;8.45;;;5.03;;
55915;SDS011;41826;53.246;-6.670;2023-03-05T11:16:01;9.82;;;6.05;;
55915;SDS011;41826;53.246;-6.670;2023-03-05T11:18:28;6.93;;;4.47;;
55915;SDS011;41826;53.246;-6.670;2023-03-05T11:23:42;13.23;;;7.43;;
55915;SDS011;41826;53.246;-6.670;2023-03-05T11:28:40;6.22;;;4.28;;
55915;SDS011;41826;53.246;-6.670;2023-03-05T11:31:23;3.47;;;3.13;;
55915;SDS011;41826;53.246;-6.670;2023-03-05T11:34:06;8.07;;;4.25;;
55915;SDS011;41826;53.246;-6.670;2023-03-05T11:39:20;5.35;;;3.90;;
55915;SDS011;41826;53.246;-6.670;2023-03-05T11:44:51;5.03;;;3.50;;
55915;SDS011;41826;53.246;-6.670;2023-03-05T11:47:24;7.82;;;5.20;;
55915;SDS011;41826;53.246;-6.670;2023-03-05T11:50:40;4.72;;;3.60;;
55915;SDS011;41826;53.246;-6.670;2023-03-05T11:55:31;6.43;;;4.30;;
55915;SDS011;41826;53.246;-6.670;2023-03-05T12:00:34;3.90;;;3.53;;
55915;SDS011;41826;53.246;-6.670;2023-03-05T12:03:13;5.53;;;4.45;;
55915;SDS011;41826;53.246;-6.670;2023-03-05T12:05:43;5.25;;;3.80;;
55915;SDS011;41826;53.246;-6.670;2023-03-05T12:08:13;9.05;;;4.53;;
55915;SDS011;41826;53.246;-6.670;2023-03-05T12:10:43;8.07;;;5.13;;
55915;SDS011;41826;53.246;-6.670;2023-03-05T12:13:42;6.60;;;3.95;;
55915;SDS011;41826;53.246;-6.670;2023-03-05T12:23:58;5.97;;;3.75;;
55915;SDS011;41826;53.246;-6.670;2023-03-05T12:31:57;3.20;;;2.85;;
55915;SDS011;41826;53.246;-6.670;2023-03-05T12:47:33;3.63;;;3.17;;
55915;SDS011;41826;53.246;-6.670;2023-03-05T12:49:59;4.50;;;2.90;;
55915;SDS011;41826;53.246;-6.670;2023-03-05T12:52:26;3.03;;;2.60;;
55915;SDS011;41826;53.246;-6.670;2023-03-05T12:57:37;5.82;;;4.00;;
55915;SDS011;41826;53.246;-6.670;2023-03-05T13:00:10;5.63;;;3.53;;
55915;SDS011;41826;53.246;-6.670;2023-03-05T13:02:47;4.82;;;3.00;;
55915;SDS011;41826;53.246;-6.670;2023-03-05T13:05:22;3.20;;;2.40;;
55915;SDS011;41826;53.246;-6.670;2023-03-05T13:07:48;2.53;;;2.15;;
55915;SDS011;41826;53.246;-6.670;2023-03-05T13:12:49;2.80;;;2.28;;
55915;SDS011;41826;53.246;-6.670;2023-03-05T13:15:17;3.45;;;2.40;;
55915;SDS011;41826;53.246;-6.670;2023-03-05T13:22:46;1.60;;;1.50;;
55915;SDS011;41826;53.246;-6.670;2023-03-05T13:25:13;2.95;;;2.22;;
55915;SDS011;41826;53.246;-6.670;2023-03-05T13:27:40;2.70;;;1.85;;
55915;SDS011;41826;53.246;-6.670;2023-03-05T13:30:19;4.80;;;2.28;;
55915;SDS011;41826;53.246;-6.670;2023-03-05T13:32:48;2.33;;;1.83;;
55915;SDS011;41826;53.246;-6.670;2023-03-05T13:35:14;3.40;;;2.45;;
55915;SDS011;41826;53.246;-6.670;2023-03-05T13:37:39;2.50;;;2.30;;
55915;SDS011;41826;53.246;-6.670;2023-03-05T13:42:45;2.63;;;2.42;;
55915;SDS011;41826;53.246;-6.670;2023-03-05T13:45:26;3.25;;;2.13;;
55915;SDS011;41826;53.246;-6.670;2023-03-05T13:50:25;4.15;;;2.08;;
55915;SDS011;41826;53.246;-6.670;2023-03-05T13:53:12;3.40;;;1.92;;
55915;SDS011;41826;53.246;-6.670;2023-03-05T13:55:39;3.85;;;1.80;;
55915;SDS011;41826;53.246;-6.670;2023-03-05T13:58:05;2.63;;;2.00;;
55915;SDS011;41826;53.246;-6.670;2023-03-05T14:05:35;3.05;;;1.77;;
55915;SDS011;41826;53.246;-6.670;2023-03-05T14:08:00;2.15;;;1.95;;
55915;SDS011;41826;53.246;-6.670;2023-03-05T14:10:33;2.15;;;1.58;;
55915;SDS011;41826;53.246;-6.670;2023-03-05T14:13:02;3.25;;;1.50;;
55915;SDS011;41826;53.246;-6.670;2023-03-05T14:15:31;3.00;;;1.65;;
55915;SDS011;41826;53.246;-6.670;2023-03-05T14:20:33;2.90;;;1.27;;
55915;SDS011;41826;53.246;-6.670;2023-03-05T14:22:59;1.55;;;1.33;;
55915;SDS011;41826;53.246;-6.670;2023-03-05T14:25:35;1.20;;;1.10;;
55915;SDS011;41826;53.246;-6.670;2023-03-05T14:30:44;2.25;;;1.27;;
55915;SDS011;41826;53.246;-6.670;2023-03-05T14:33:11;1.95;;;1.50;;
55915;SDS011;41826;53.246;-6.670;2023-03-05T14:35:38;2.45;;;1.20;;
55915;SDS011;41826;53.246;-6.670;2023-03-05T14:38:04;1.55;;;1.08;;
55915;SDS011;41826;53.246;-6.670;2023-03-05T14:40:33;1.67;;;0.80;;
55915;SDS011;41826;53.246;-6.670;2023-03-05T14:43:00;1.92;;;0.75;;
55915;SDS011;41826;53.246;-6.670;2023-03-05T14:45:35;0.82;;;0.82;;
55915;SDS011;41826;53.246;-6.670;2023-03-05T14:48:03;1.10;;;1.00;;
55915;SDS011;41826;53.246;-6.670;2023-03-05T14:50:34;1.80;;;0.95;;
55915;SDS011;41826;53.246;-6.670;2023-03-05T14:53:06;3.15;;;1.75;;
55915;SDS011;41826;53.246;-6.670;2023-03-05T14:55:33;1.77;;;1.33;;
55915;SDS011;41826;53.246;-6.670;2023-03-05T14:58:12;2.25;;;1.20;;
55915;SDS011;41826;53.246;-6.670;2023-03-05T15:00:40;2.20;;;1.70;;
55915;SDS011;41826;53.246;-6.670;2023-03-05T15:03:09;2.38;;;1.92;;
55915;SDS011;41826;53.246;-6.670;2023-03-05T15:05:35;4.55;;;2.20;;
55915;SDS011;41826;53.246;-6.670;2023-03-05T15:08:02;2.22;;;1.92;;
55915;SDS011;41826;53.246;-6.670;2023-03-05T15:10:27;2.38;;;2.15;;
55915;SDS011;41826;53.246;-6.670;2023-03-05T15:12:53;2.03;;;1.60;;
55915;SDS011;41826;53.246;-6.670;2023-03-05T15:15:19;2.45;;;1.33;;
55915;SDS011;41826;53.246;-6.670;2023-03-05T15:17:46;1.38;;;1.27;;
55915;SDS011;41826;53.246;-6.670;2023-03-05T15:20:17;1.90;;;1.70;;
55915;SDS011;41826;53.246;-6.670;2023-03-05T15:22:47;1.77;;;1.58;;
55915;SDS011;41826;53.246;-6.670;2023-03-05T15:25:13;1.58;;;1.38;;
55915;SDS011;41826;53.246;-6.670;2023-03-05T15:27:39;2.47;;;1.42;;
55915;SDS011;41826;53.246;-6.670;2023-03-05T15:30:06;2.08;;;1.70;;
55915;SDS011;41826;53.246;-6.670;2023-03-05T15:32:32;1.83;;;1.73;;
55915;SDS011;41826;53.246;-6.670;2023-03-05T15:34:58;2.03;;;1.85;;
55915;SDS011;41826;53.246;-6.670;2023-03-05T15:37:24;2.17;;;1.98;;
55915;SDS011;41826;53.246;-6.670;2023-03-05T15:39:50;2.08;;;1.88;;
55915;SDS011;41826;53.246;-6.670;2023-03-05T15:42:16;1.75;;;1.60;;
55915;SDS011;41826;53.246;-6.670;2023-03-05T15:44:41;2.30;;;2.00;;
55915;SDS011;41826;53.246;-6.670;2023-03-05T15:47:07;3.20;;;2.10;;
55915;SDS011;41826;53.246;-6.670;2023-03-05T15:49:32;1.90;;;1.80;;
55915;SDS011;41826;53.246;-6.670;2023-03-05T15:51:58;1.85;;;1.67;;
55915;SDS011;41826;53.246;-6.670;2023-03-05T15:54:24;2.60;;;1.63;;
55915;SDS011;41826;53.246;-6.670;2023-03-05T15:56:49;2.53;;;2.33;;
55915;SDS011;41826;53.246;-6.670;2023-03-05T15:59:16;3.58;;;1.70;;
55915;SDS011;41826;53.246;-6.670;2023-03-05T16:01:46;1.95;;;1.75;;
55915;SDS011;41826;53.246;-6.670;2023-03-05T16:04:15;3.00;;;1.77;;
55915;SDS011;41826;53.246;-6.670;2023-03-05T16:06:41;3.33;;;1.85;;
55915;SDS011;41826;53.246;-6.670;2023-03-05T16:09:09;2.45;;;1.85;;
55915;SDS011;41826;53.246;-6.670;2023-03-05T16:11:35;2.20;;;1.60;;
55915;SDS011;41826;53.246;-6.670;2023-03-05T16:14:03;3.50;;;1.60;;
55915;SDS011;41826;53.246;-6.670;2023-03-05T16:16:32;2.15;;;1.73;;
55915;SDS011;41826;53.246;-6.670;2023-03-05T16:18:59;2.38;;;2.00;;
55915;SDS011;41826;53.246;-6.670;2023-03-05T16:21:25;2.40;;;1.92;;
55915;SDS011;41826;53.246;-6.670;2023-03-05T16:23:51;2.95;;;2.10;;
55915;SDS011;41826;53.246;-6.670;2023-03-05T16:26:16;2.88;;;1.90;;
55915;SDS011;41826;53.246;-6.670;2023-03-05T16:28:42;2.85;;;1.85;;